sensor_id;sensor_type;location;lat;lon;timestamp;P1;durP1;ratioP1;P2;durP2;ratioP2
54539;SDS011;40438;52.992;18.604;2024-02-21T00:01:54;15.55;;;3.97;;
54539;SDS011;40438;52.992;18.604;2024-02-21T00:04:21;9.55;;;4.78;;
54539;SDS011;40438;52.992;18.604;2024-02-21T00:06:47;13.43;;;3.70;;
54539;SDS011;40438;52.992;18.604;2024-02-21T00:09:13;13.98;;;3.17;;
54539;SDS011;40438;52.992;18.604;2024-02-21T00:11:40;20.65;;;4.13;;
54539;SDS011;40438;52.992;18.604;2024-02-21T00:14:06;12.25;;;4.53;;
54539;SDS011;40438;52.992;18.604;2024-02-21T00:16:31;12.48;;;4.72;;
54539;SDS011;40438;52.992;18.604;2024-02-21T00:18:57;16.80;;;4.90;;
54539;SDS011;40438;52.992;18.604;2024-02-21T00:21:24;15.13;;;5.50;;
54539;SDS011;40438;52.992;18.604;2024-02-21T00:23:50;20.75;;;6.20;;
54539;SDS011;40438;52.992;18.604;2024-02-21T00:26:16;12.82;;;5.82;;
54539;SDS011;40438;52.992;18.604;2024-02-21T00:28:41;18.02;;;4.68;;
54539;SDS011;40438;52.992;18.604;2024-02-21T00:31:07;10.85;;;4.03;;
54539;SDS011;40438;52.992;18.604;2024-02-21T00:33:33;20.55;;;5.38;;
54539;SDS011;40438;52.992;18.604;2024-02-21T00:35:58;18.33;;;5.07;;
54539;SDS011;40438;52.992;18.604;2024-02-21T00:38:26;15.23;;;4.68;;
54539;SDS011;40438;52.992;18.604;2024-02-21T00:40:51;17.67;;;4.90;;
54539;SDS011;40438;52.992;18.604;2024-02-21T00:43:17;12.90;;;3.92;;
54539;SDS011;40438;52.992;18.604;2024-02-21T00:45:43;11.20;;;4.63;;
54539;SDS011;40438;52.992;18.604;2024-02-21T00:48:08;20.77;;;5.68;;
54539;SDS011;40438;52.992;18.604;2024-02-21T00:50:34;17.63;;;5.15;;
54539;SDS011;40438;52.992;18.604;2024-02-21T00:53:00;13.40;;;4.43;;
54539;SDS011;40438;52.992;18.604;2024-02-21T00:55:27;14.77;;;4.38;;
54539;SDS011;40438;52.992;18.604;2024-02-21T00:57:53;14.20;;;4.97;;
54539;SDS011;40438;52.992;18.604;2024-02-21T01:00:19;17.73;;;4.50;;
54539;SDS011;40438;52.992;18.604;2024-02-21T01:02:45;13.10;;;4.43;;
54539;SDS011;40438;52.992;18.604;2024-02-21T01:05:10;19.00;;;5.07;;
54539;SDS011;40438;52.992;18.604;2024-02-21T01:07:36;14.23;;;4.93;;
54539;SDS011;40438;52.992;18.604;2024-02-21T01:10:02;13.88;;;5.05;;
54539;SDS011;40438;52.992;18.604;2024-02-21T01:12:29;18.13;;;5.03;;
54539;SDS011;40438;52.992;18.604;2024-02-21T01:14:55;23.13;;;5.47;;
54539;SDS011;40438;52.992;18.604;2024-02-21T01:17:21;13.45;;;4.90;;
54539;SDS011;40438;52.992;18.604;2024-02-21T01:19:47;17.73;;;5.93;;
54539;SDS011;40438;52.992;18.604;2024-02-21T01:22:12;18.13;;;5.30;;
54539;SDS011;40438;52.992;18.604;2024-02-21T01:24:38;14.02;;;5.60;;
54539;SDS011;40438;52.992;18.604;2024-02-21T01:27:04;19.13;;;5.90;;
54539;SDS011;40438;52.992;18.604;2024-02-21T01:29:31;18.02;;;5.93;;
54539;SDS011;40438;52.992;18.604;2024-02-21T01:31:57;12.55;;;4.78;;
54539;SDS011;40438;52.992;18.604;2024-02-21T01:34:22;27.17;;;5.97;;
54539;SDS011;40438;52.992;18.604;2024-02-21T01:36:48;11.43;;;4.70;;
54539;SDS011;40438;52.992;18.604;2024-02-21T01:39:14;14.95;;;4.88;;
54539;SDS011;40438;52.992;18.604;2024-02-21T01:41:40;23.60;;;5.97;;
54539;SDS011;40438;52.992;18.604;2024-02-21T01:44:05;13.57;;;4.70;;
54539;SDS011;40438;52.992;18.604;2024-02-21T01:46:33;13.68;;;5.13;;
54539;SDS011;40438;52.992;18.604;2024-02-21T01:49:00;19.88;;;6.28;;
54539;SDS011;40438;52.992;18.604;2024-02-21T01:51:26;17.77;;;5.85;;
54539;SDS011;40438;52.992;18.604;2024-02-21T01:53:52;15.45;;;5.38;;
54539;SDS011;40438;52.992;18.604;2024-02-21T01:56:20;19.05;;;5.30;;
54539;SDS011;40438;52.992;18.604;2024-02-21T01:58:46;16.65;;;5.35;;
54539;SDS011;40438;52.992;18.604;2024-02-21T02:01:14;17.20;;;5.35;;
54539;SDS011;40438;52.992;18.604;2024-02-21T02:03:42;19.17;;;5.43;;
54539;SDS011;40438;52.992;18.604;2024-02-21T02:06:10;14.82;;;5.35;;
54539;SDS011;40438;52.992;18.604;2024-02-21T02:08:35;20.27;;;5.82;;
54539;SDS011;40438;52.992;18.604;2024-02-21T02:11:02;16.58;;;5.50;;
54539;SDS011;40438;52.992;18.604;2024-02-21T02:13:28;18.38;;;5.45;;
54539;SDS011;40438;52.992;18.604;2024-02-21T02:15:53;14.80;;;5.28;;
54539;SDS011;40438;52.992;18.604;2024-02-21T02:18:20;20.63;;;5.40;;
54539;SDS011;40438;52.992;18.604;2024-02-21T02:20:47;19.98;;;5.75;;
54539;SDS011;40438;52.992;18.604;2024-02-21T02:23:17;21.52;;;6.25;;
54539;SDS011;40438;52.992;18.604;2024-02-21T02:25:45;18.92;;;5.35;;
54539;SDS011;40438;52.992;18.604;2024-02-21T02:28:11;16.20;;;5.55;;
54539;SDS011;40438;52.992;18.604;2024-02-21T02:30:37;20.92;;;5.07;;
54539;SDS011;40438;52.992;18.604;2024-02-21T02:33:03;22.80;;;6.15;;
54539;SDS011;40438;52.992;18.604;2024-02-21T02:35:29;28.17;;;6.93;;
54539;SDS011;40438;52.992;18.604;2024-02-21T02:37:55;19.77;;;5.18;;
54539;SDS011;40438;52.992;18.604;2024-02-21T02:40:22;21.30;;;5.82;;
54539;SDS011;40438;52.992;18.604;2024-02-21T02:42:48;22.45;;;6.38;;
54539;SDS011;40438;52.992;18.604;2024-02-21T02:45:14;19.05;;;5.13;;
54539;SDS011;40438;52.992;18.604;2024-02-21T02:47:40;20.67;;;6.30;;
54539;SDS011;40438;52.992;18.604;2024-02-21T02:50:06;24.02;;;5.70;;
54539;SDS011;40438;52.992;18.604;2024-02-21T02:52:33;21.13;;;6.47;;
54539;SDS011;40438;52.992;18.604;2024-02-21T02:54:58;17.73;;;5.82;;
54539;SDS011;40438;52.992;18.604;2024-02-21T02:57:26;23.20;;;6.25;;
54539;SDS011;40438;52.992;18.604;2024-02-21T02:59:51;20.02;;;5.78;;
54539;SDS011;40438;52.992;18.604;2024-02-21T03:02:17;21.45;;;5.63;;
54539;SDS011;40438;52.992;18.604;2024-02-21T03:04:43;23.75;;;5.93;;
54539;SDS011;40438;52.992;18.604;2024-02-21T03:07:09;18.60;;;4.78;;
54539;SDS011;40438;52.992;18.604;2024-02-21T03:09:34;19.17;;;5.43;;
54539;SDS011;40438;52.992;18.604;2024-02-21T03:12:00;20.58;;;6.10;;
54539;SDS011;40438;52.992;18.604;2024-02-21T03:14:27;16.15;;;5.40;;
54539;SDS011;40438;52.992;18.604;2024-02-21T03:16:53;13.82;;;5.40;;
54539;SDS011;40438;52.992;18.604;2024-02-21T03:19:19;18.10;;;5.78;;
54539;SDS011;40438;52.992;18.604;2024-02-21T03:21:45;23.80;;;4.57;;
54539;SDS011;40438;52.992;18.604;2024-02-21T03:24:10;27.60;;;5.97;;
54539;SDS011;40438;52.992;18.604;2024-02-21T03:26:36;23.58;;;5.57;;
54539;SDS011;40438;52.992;18.604;2024-02-21T03:29:02;20.00;;;5.07;;
54539;SDS011;40438;52.992;18.604;2024-02-21T03:31:29;16.10;;;4.80;;
54539;SDS011;40438;52.992;18.604;2024-02-21T03:33:55;18.02;;;5.35;;
54539;SDS011;40438;52.992;18.604;2024-02-21T03:36:21;26.23;;;6.60;;
54539;SDS011;40438;52.992;18.604;2024-02-21T03:38:47;16.20;;;5.65;;
54539;SDS011;40438;52.992;18.604;2024-02-21T03:41:12;29.85;;;6.13;;
54539;SDS011;40438;52.992;18.604;2024-02-21T03:43:38;28.30;;;6.25;;
54539;SDS011;40438;52.992;18.604;2024-02-21T03:46:04;19.55;;;6.05;;
54539;SDS011;40438;52.992;18.604;2024-02-21T03:48:31;20.83;;;5.40;;
54539;SDS011;40438;52.992;18.604;2024-02-21T03:50:57;23.88;;;6.82;;
54539;SDS011;40438;52.992;18.604;2024-02-21T03:53:23;15.77;;;5.07;;
54539;SDS011;40438;52.992;18.604;2024-02-21T03:55:48;20.30;;;6.20;;
54539;SDS011;40438;52.992;18.604;2024-02-21T03:58:14;25.60;;;5.88;;
54539;SDS011;40438;52.992;18.604;2024-02-21T04:00:40;21.23;;;5.85;;
54539;SDS011;40438;52.992;18.604;2024-02-21T04:03:06;18.95;;;5.70;;
54539;SDS011;40438;52.992;18.604;2024-02-21T04:05:33;18.67;;;6.43;;
54539;SDS011;40438;52.992;18.604;2024-02-21T04:07:58;17.08;;;6.00;;
54539;SDS011;40438;52.992;18.604;2024-02-21T04:10:24;19.85;;;5.45;;
54539;SDS011;40438;52.992;18.604;2024-02-21T04:12:50;23.55;;;5.75;;
54539;SDS011;40438;52.992;18.604;2024-02-21T04:15:16;25.52;;;5.60;;
54539;SDS011;40438;52.992;18.604;2024-02-21T04:17:41;19.38;;;6.20;;
54539;SDS011;40438;52.992;18.604;2024-02-21T04:20:13;30.77;;;6.68;;
54539;SDS011;40438;52.992;18.604;2024-02-21T04:22:42;23.30;;;5.85;;
54539;SDS011;40438;52.992;18.604;2024-02-21T04:25:08;19.00;;;5.95;;
54539;SDS011;40438;52.992;18.604;2024-02-21T04:27:34;21.98;;;7.00;;
54539;SDS011;40438;52.992;18.604;2024-02-21T04:29:59;31.58;;;6.47;;
54539;SDS011;40438;52.992;18.604;2024-02-21T04:32:25;27.52;;;6.97;;
54539;SDS011;40438;52.992;18.604;2024-02-21T04:34:51;25.70;;;6.43;;
54539;SDS011;40438;52.992;18.604;2024-02-21T04:37:17;28.60;;;7.03;;
54539;SDS011;40438;52.992;18.604;2024-02-21T04:39:44;26.55;;;6.07;;
54539;SDS011;40438;52.992;18.604;2024-02-21T04:42:09;22.73;;;6.45;;
54539;SDS011;40438;52.992;18.604;2024-02-21T04:44:35;20.80;;;5.85;;
54539;SDS011;40438;52.992;18.604;2024-02-21T04:47:01;27.95;;;6.65;;
54539;SDS011;40438;52.992;18.604;2024-02-21T04:49:27;28.58;;;7.47;;
54539;SDS011;40438;52.992;18.604;2024-02-21T04:51:53;35.38;;;6.65;;
54539;SDS011;40438;52.992;18.604;2024-02-21T04:54:18;19.63;;;7.07;;
54539;SDS011;40438;52.992;18.604;2024-02-21T04:56:45;27.83;;;6.80;;
54539;SDS011;40438;52.992;18.604;2024-02-21T04:59:11;29.50;;;7.35;;
54539;SDS011;40438;52.992;18.604;2024-02-21T05:01:37;24.23;;;6.65;;
54539;SDS011;40438;52.992;18.604;2024-02-21T05:04:03;31.40;;;7.53;;
54539;SDS011;40438;52.992;18.604;2024-02-21T05:06:29;41.38;;;7.15;;
54539;SDS011;40438;52.992;18.604;2024-02-21T05:08:55;23.60;;;7.22;;
54539;SDS011;40438;52.992;18.604;2024-02-21T05:11:20;23.42;;;7.00;;
54539;SDS011;40438;52.992;18.604;2024-02-21T05:13:47;18.90;;;6.55;;
54539;SDS011;40438;52.992;18.604;2024-02-21T05:16:13;22.20;;;6.32;;
54539;SDS011;40438;52.992;18.604;2024-02-21T05:18:40;21.25;;;6.57;;
54539;SDS011;40438;52.992;18.604;2024-02-21T05:21:05;19.77;;;7.22;;
54539;SDS011;40438;52.992;18.604;2024-02-21T05:23:31;17.58;;;6.90;;
54539;SDS011;40438;52.992;18.604;2024-02-21T05:25:57;22.88;;;6.53;;
54539;SDS011;40438;52.992;18.604;2024-02-21T05:28:23;23.48;;;7.00;;
54539;SDS011;40438;52.992;18.604;2024-02-21T05:30:50;18.88;;;8.07;;
54539;SDS011;40438;52.992;18.604;2024-02-21T05:33:16;21.80;;;7.30;;
54539;SDS011;40438;52.992;18.604;2024-02-21T05:35:41;22.33;;;6.57;;
54539;SDS011;40438;52.992;18.604;2024-02-21T05:38:07;23.63;;;7.93;;
54539;SDS011;40438;52.992;18.604;2024-02-21T05:40:33;21.27;;;7.28;;
54539;SDS011;40438;52.992;18.604;2024-02-21T05:42:59;19.13;;;6.50;;
54539;SDS011;40438;52.992;18.604;2024-02-21T05:45:24;29.23;;;7.85;;
54539;SDS011;40438;52.992;18.604;2024-02-21T05:47:51;29.90;;;7.45;;
54539;SDS011;40438;52.992;18.604;2024-02-21T05:50:17;27.27;;;8.55;;
54539;SDS011;40438;52.992;18.604;2024-02-21T05:52:43;24.85;;;7.32;;
54539;SDS011;40438;52.992;18.604;2024-02-21T05:55:09;23.38;;;8.10;;
54539;SDS011;40438;52.992;18.604;2024-02-21T05:57:34;19.83;;;7.35;;
54539;SDS011;40438;52.992;18.604;2024-02-21T06:00:00;23.65;;;7.85;;
54539;SDS011;40438;52.992;18.604;2024-02-21T06:02:37;27.25;;;8.38;;
54539;SDS011;40438;52.992;18.604;2024-02-21T06:05:05;30.77;;;8.57;;
54539;SDS011;40438;52.992;18.604;2024-02-21T06:07:31;28.75;;;9.02;;
54539;SDS011;40438;52.992;18.604;2024-02-21T06:09:56;24.52;;;8.55;;
54539;SDS011;40438;52.992;18.604;2024-02-21T06:12:22;30.00;;;10.07;;
54539;SDS011;40438;52.992;18.604;2024-02-21T06:14:48;27.45;;;9.43;;
54539;SDS011;40438;52.992;18.604;2024-02-21T06:17:14;28.20;;;10.65;;
54539;SDS011;40438;52.992;18.604;2024-02-21T06:19:40;23.08;;;9.35;;
54539;SDS011;40438;52.992;18.604;2024-02-21T06:22:08;26.77;;;10.18;;
54539;SDS011;40438;52.992;18.604;2024-02-21T06:24:34;37.97;;;9.63;;
54539;SDS011;40438;52.992;18.604;2024-02-21T06:27:00;33.53;;;11.80;;
54539;SDS011;40438;52.992;18.604;2024-02-21T06:29:25;37.17;;;11.80;;
54539;SDS011;40438;52.992;18.604;2024-02-21T06:31:51;60.63;;;19.65;;
54539;SDS011;40438;52.992;18.604;2024-02-21T06:34:17;31.80;;;11.70;;
54539;SDS011;40438;52.992;18.604;2024-02-21T06:36:44;27.15;;;10.77;;
54539;SDS011;40438;52.992;18.604;2024-02-21T06:39:11;28.63;;;10.40;;
54539;SDS011;40438;52.992;18.604;2024-02-21T06:41:37;35.42;;;10.43;;
54539;SDS011;40438;52.992;18.604;2024-02-21T06:44:03;28.10;;;9.65;;
54539;SDS011;40438;52.992;18.604;2024-02-21T06:46:29;29.85;;;10.68;;
54539;SDS011;40438;52.992;18.604;2024-02-21T06:48:55;26.55;;;10.70;;
54539;SDS011;40438;52.992;18.604;2024-02-21T06:51:21;42.78;;;13.45;;
54539;SDS011;40438;52.992;18.604;2024-02-21T06:53:47;28.38;;;10.43;;
54539;SDS011;40438;52.992;18.604;2024-02-21T06:56:14;30.38;;;10.68;;
54539;SDS011;40438;52.992;18.604;2024-02-21T06:58:40;51.05;;;16.10;;
54539;SDS011;40438;52.992;18.604;2024-02-21T07:01:06;43.60;;;13.52;;
54539;SDS011;40438;52.992;18.604;2024-02-21T07:03:32;37.65;;;13.13;;
54539;SDS011;40438;52.992;18.604;2024-02-21T07:05:58;41.92;;;10.45;;
54539;SDS011;40438;52.992;18.604;2024-02-21T07:08:23;34.03;;;11.43;;
54539;SDS011;40438;52.992;18.604;2024-02-21T07:10:49;40.25;;;12.20;;
54539;SDS011;40438;52.992;18.604;2024-02-21T07:13:16;38.05;;;14.30;;
54539;SDS011;40438;52.992;18.604;2024-02-21T07:15:42;35.05;;;12.82;;
54539;SDS011;40438;52.992;18.604;2024-02-21T07:18:08;38.17;;;13.70;;
54539;SDS011;40438;52.992;18.604;2024-02-21T07:20:34;29.83;;;11.68;;
54539;SDS011;40438;52.992;18.604;2024-02-21T07:22:59;40.05;;;12.82;;
54539;SDS011;40438;52.992;18.604;2024-02-21T07:25:25;39.08;;;13.75;;
54539;SDS011;40438;52.992;18.604;2024-02-21T07:27:51;41.17;;;13.05;;
54539;SDS011;40438;52.992;18.604;2024-02-21T07:30:18;34.83;;;13.73;;
54539;SDS011;40438;52.992;18.604;2024-02-21T07:32:44;39.17;;;13.75;;
54539;SDS011;40438;52.992;18.604;2024-02-21T07:35:09;39.30;;;13.55;;
54539;SDS011;40438;52.992;18.604;2024-02-21T07:37:35;111.97;;;38.33;;
54539;SDS011;40438;52.992;18.604;2024-02-21T07:40:01;47.15;;;17.98;;
54539;SDS011;40438;52.992;18.604;2024-02-21T07:42:27;32.53;;;11.70;;
54539;SDS011;40438;52.992;18.604;2024-02-21T07:44:53;31.75;;;12.93;;
54539;SDS011;40438;52.992;18.604;2024-02-21T07:47:20;42.38;;;14.30;;
54539;SDS011;40438;52.992;18.604;2024-02-21T07:49:46;42.17;;;12.88;;
54539;SDS011;40438;52.992;18.604;2024-02-21T07:52:11;32.72;;;14.15;;
54539;SDS011;40438;52.992;18.604;2024-02-21T07:54:37;32.95;;;12.00;;
54539;SDS011;40438;52.992;18.604;2024-02-21T07:57:03;33.38;;;12.50;;
54539;SDS011;40438;52.992;18.604;2024-02-21T07:59:29;29.48;;;10.52;;
54539;SDS011;40438;52.992;18.604;2024-02-21T08:01:56;32.65;;;10.73;;
54539;SDS011;40438;52.992;18.604;2024-02-21T08:04:23;27.15;;;10.30;;
54539;SDS011;40438;52.992;18.604;2024-02-21T08:06:50;24.25;;;9.90;;
54539;SDS011;40438;52.992;18.604;2024-02-21T08:09:17;36.17;;;10.63;;
54539;SDS011;40438;52.992;18.604;2024-02-21T08:11:42;36.47;;;13.85;;
54539;SDS011;40438;52.992;18.604;2024-02-21T08:14:08;33.35;;;10.65;;
54539;SDS011;40438;52.992;18.604;2024-02-21T08:16:34;29.20;;;10.35;;
54539;SDS011;40438;52.992;18.604;2024-02-21T08:18:59;27.33;;;11.27;;
54539;SDS011;40438;52.992;18.604;2024-02-21T08:21:27;29.73;;;11.02;;
54539;SDS011;40438;52.992;18.604;2024-02-21T08:23:52;26.73;;;10.32;;
54539;SDS011;40438;52.992;18.604;2024-02-21T08:26:18;31.02;;;11.32;;
54539;SDS011;40438;52.992;18.604;2024-02-21T08:28:44;37.53;;;9.95;;
54539;SDS011;40438;52.992;18.604;2024-02-21T08:31:09;25.58;;;10.20;;
54539;SDS011;40438;52.992;18.604;2024-02-21T08:33:35;35.17;;;10.10;;
54539;SDS011;40438;52.992;18.604;2024-02-21T08:36:01;23.40;;;10.15;;
54539;SDS011;40438;52.992;18.604;2024-02-21T08:38:28;27.35;;;11.55;;
54539;SDS011;40438;52.992;18.604;2024-02-21T08:40:54;35.58;;;9.93;;
54539;SDS011;40438;52.992;18.604;2024-02-21T08:43:20;32.85;;;10.05;;
54539;SDS011;40438;52.992;18.604;2024-02-21T08:45:45;24.08;;;10.10;;
54539;SDS011;40438;52.992;18.604;2024-02-21T08:48:11;31.73;;;9.75;;
54539;SDS011;40438;52.992;18.604;2024-02-21T08:50:37;33.95;;;11.77;;
54539;SDS011;40438;52.992;18.604;2024-02-21T08:53:03;38.22;;;11.30;;
54539;SDS011;40438;52.992;18.604;2024-02-21T08:55:30;25.75;;;10.15;;
54539;SDS011;40438;52.992;18.604;2024-02-21T08:57:56;30.38;;;12.10;;
54539;SDS011;40438;52.992;18.604;2024-02-21T09:00:21;36.30;;;12.55;;
54539;SDS011;40438;52.992;18.604;2024-02-21T09:02:47;34.55;;;12.30;;
54539;SDS011;40438;52.992;18.604;2024-02-21T09:05:13;37.40;;;12.82;;
54539;SDS011;40438;52.992;18.604;2024-02-21T09:07:39;49.72;;;18.70;;
54539;SDS011;40438;52.992;18.604;2024-02-21T09:10:05;76.20;;;24.20;;
54539;SDS011;40438;52.992;18.604;2024-02-21T09:12:33;43.63;;;13.77;;
54539;SDS011;40438;52.992;18.604;2024-02-21T09:14:59;35.55;;;11.27;;
54539;SDS011;40438;52.992;18.604;2024-02-21T09:17:24;31.75;;;12.05;;
54539;SDS011;40438;52.992;18.604;2024-02-21T09:19:50;27.27;;;11.73;;
54539;SDS011;40438;52.992;18.604;2024-02-21T09:22:16;39.70;;;13.38;;
54539;SDS011;40438;52.992;18.604;2024-02-21T09:24:42;30.25;;;10.75;;
54539;SDS011;40438;52.992;18.604;2024-02-21T09:27:07;27.23;;;11.68;;
54539;SDS011;40438;52.992;18.604;2024-02-21T09:29:34;33.30;;;11.32;;
54539;SDS011;40438;52.992;18.604;2024-02-21T09:32:00;32.80;;;11.48;;
54539;SDS011;40438;52.992;18.604;2024-02-21T09:34:26;27.13;;;11.43;;
54539;SDS011;40438;52.992;18.604;2024-02-21T09:36:52;25.55;;;11.25;;
54539;SDS011;40438;52.992;18.604;2024-02-21T09:39:17;29.75;;;12.52;;
54539;SDS011;40438;52.992;18.604;2024-02-21T09:41:45;31.92;;;11.70;;
54539;SDS011;40438;52.992;18.604;2024-02-21T09:44:15;32.13;;;12.05;;
54539;SDS011;40438;52.992;18.604;2024-02-21T09:46:44;32.60;;;13.18;;
54539;SDS011;40438;52.992;18.604;2024-02-21T09:49:19;32.80;;;11.90;;
54539;SDS011;40438;52.992;18.604;2024-02-21T09:51:51;28.98;;;11.23;;
54539;SDS011;40438;52.992;18.604;2024-02-21T09:54:19;31.60;;;11.45;;
54539;SDS011;40438;52.992;18.604;2024-02-21T09:56:45;31.13;;;13.23;;
54539;SDS011;40438;52.992;18.604;2024-02-21T09:59:11;27.75;;;12.25;;
54539;SDS011;40438;52.992;18.604;2024-02-21T10:01:37;27.58;;;11.52;;
54539;SDS011;40438;52.992;18.604;2024-02-21T10:04:04;30.33;;;11.65;;
54539;SDS011;40438;52.992;18.604;2024-02-21T10:06:30;32.33;;;12.65;;
54539;SDS011;40438;52.992;18.604;2024-02-21T10:08:56;30.15;;;10.98;;
54539;SDS011;40438;52.992;18.604;2024-02-21T10:11:22;27.90;;;11.90;;
54539;SDS011;40438;52.992;18.604;2024-02-21T10:13:48;25.38;;;11.05;;
54539;SDS011;40438;52.992;18.604;2024-02-21T10:16:14;30.58;;;11.18;;
54539;SDS011;40438;52.992;18.604;2024-02-21T10:18:41;34.28;;;11.95;;
54539;SDS011;40438;52.992;18.604;2024-02-21T10:21:08;29.40;;;10.90;;
54539;SDS011;40438;52.992;18.604;2024-02-21T10:23:44;33.80;;;11.02;;
54539;SDS011;40438;52.992;18.604;2024-02-21T10:26:11;22.77;;;10.50;;
54539;SDS011;40438;52.992;18.604;2024-02-21T10:28:37;32.55;;;11.30;;
54539;SDS011;40438;52.992;18.604;2024-02-21T10:31:03;33.72;;;11.50;;
54539;SDS011;40438;52.992;18.604;2024-02-21T10:33:29;28.60;;;11.50;;
54539;SDS011;40438;52.992;18.604;2024-02-21T10:35:54;32.58;;;11.65;;
54539;SDS011;40438;52.992;18.604;2024-02-21T10:38:32;28.65;;;10.43;;
54539;SDS011;40438;52.992;18.604;2024-02-21T10:40:58;24.80;;;10.20;;
54539;SDS011;40438;52.992;18.604;2024-02-21T10:43:23;19.83;;;9.95;;
54539;SDS011;40438;52.992;18.604;2024-02-21T10:45:51;22.95;;;9.88;;
54539;SDS011;40438;52.992;18.604;2024-02-21T10:48:20;29.38;;;11.20;;
54539;SDS011;40438;52.992;18.604;2024-02-21T10:50:56;25.77;;;10.48;;
54539;SDS011;40438;52.992;18.604;2024-02-21T10:53:24;30.08;;;10.27;;
54539;SDS011;40438;52.992;18.604;2024-02-21T10:56:11;26.08;;;10.85;;
54539;SDS011;40438;52.992;18.604;2024-02-21T10:58:46;26.33;;;10.85;;
54539;SDS011;40438;52.992;18.604;2024-02-21T11:01:14;25.33;;;8.88;;
54539;SDS011;40438;52.992;18.604;2024-02-21T11:03:40;20.58;;;9.13;;
54539;SDS011;40438;52.992;18.604;2024-02-21T11:06:07;23.05;;;8.30;;
54539;SDS011;40438;52.992;18.604;2024-02-21T11:08:34;21.23;;;9.38;;
54539;SDS011;40438;52.992;18.604;2024-02-21T11:11:00;18.55;;;10.02;;
54539;SDS011;40438;52.992;18.604;2024-02-21T11:13:34;23.55;;;9.68;;
54539;SDS011;40438;52.992;18.604;2024-02-21T11:16:10;19.30;;;9.55;;
54539;SDS011;40438;52.992;18.604;2024-02-21T11:18:37;22.63;;;9.38;;
54539;SDS011;40438;52.992;18.604;2024-02-21T11:21:03;22.70;;;9.88;;
54539;SDS011;40438;52.992;18.604;2024-02-21T11:23:29;25.98;;;10.40;;
54539;SDS011;40438;52.992;18.604;2024-02-21T11:26:03;21.30;;;8.68;;
54539;SDS011;40438;52.992;18.604;2024-02-21T11:28:30;27.33;;;8.63;;
54539;SDS011;40438;52.992;18.604;2024-02-21T11:31:05;22.25;;;8.75;;
54539;SDS011;40438;52.992;18.604;2024-02-21T11:33:32;25.05;;;10.50;;
54539;SDS011;40438;52.992;18.604;2024-02-21T11:35:58;22.60;;;10.10;;
54539;SDS011;40438;52.992;18.604;2024-02-21T11:38:24;25.73;;;10.43;;
54539;SDS011;40438;52.992;18.604;2024-02-21T11:40:50;24.17;;;9.95;;
54539;SDS011;40438;52.992;18.604;2024-02-21T11:43:16;23.33;;;9.20;;
54539;SDS011;40438;52.992;18.604;2024-02-21T11:45:42;26.55;;;9.50;;
54539;SDS011;40438;52.992;18.604;2024-02-21T11:48:09;26.10;;;10.30;;
54539;SDS011;40438;52.992;18.604;2024-02-21T11:50:35;19.33;;;7.63;;
54539;SDS011;40438;52.992;18.604;2024-02-21T11:53:01;30.33;;;9.48;;
54539;SDS011;40438;52.992;18.604;2024-02-21T11:55:26;24.75;;;9.98;;
54539;SDS011;40438;52.992;18.604;2024-02-21T11:57:53;22.35;;;10.10;;
54539;SDS011;40438;52.992;18.604;2024-02-21T12:00:19;18.95;;;8.77;;
54539;SDS011;40438;52.992;18.604;2024-02-21T12:02:45;20.45;;;9.20;;
54539;SDS011;40438;52.992;18.604;2024-02-21T12:05:12;22.30;;;9.77;;
54539;SDS011;40438;52.992;18.604;2024-02-21T12:07:38;21.58;;;8.88;;
54539;SDS011;40438;52.992;18.604;2024-02-21T12:10:06;29.20;;;9.95;;
54539;SDS011;40438;52.992;18.604;2024-02-21T12:12:33;23.63;;;9.35;;
54539;SDS011;40438;52.992;18.604;2024-02-21T12:14:59;19.70;;;9.10;;
54539;SDS011;40438;52.992;18.604;2024-02-21T12:17:25;17.52;;;8.23;;
54539;SDS011;40438;52.992;18.604;2024-02-21T12:19:50;22.73;;;9.43;;
54539;SDS011;40438;52.992;18.604;2024-02-21T12:22:18;19.83;;;10.23;;
54539;SDS011;40438;52.992;18.604;2024-02-21T12:24:43;21.50;;;10.48;;
54539;SDS011;40438;52.992;18.604;2024-02-21T12:27:09;16.42;;;8.40;;
54539;SDS011;40438;52.992;18.604;2024-02-21T12:29:35;21.90;;;9.07;;
54539;SDS011;40438;52.992;18.604;2024-02-21T12:32:01;21.08;;;8.13;;
54539;SDS011;40438;52.992;18.604;2024-02-21T12:34:26;22.80;;;8.77;;
54539;SDS011;40438;52.992;18.604;2024-02-21T12:36:52;24.35;;;9.48;;
54539;SDS011;40438;52.992;18.604;2024-02-21T12:39:19;21.48;;;8.70;;
54539;SDS011;40438;52.992;18.604;2024-02-21T12:41:45;18.45;;;9.07;;
54539;SDS011;40438;52.992;18.604;2024-02-21T12:44:11;20.65;;;9.38;;
54539;SDS011;40438;52.992;18.604;2024-02-21T12:46:37;20.65;;;9.23;;
54539;SDS011;40438;52.992;18.604;2024-02-21T12:49:03;18.10;;;8.20;;
54539;SDS011;40438;52.992;18.604;2024-02-21T12:51:29;16.08;;;7.93;;
54539;SDS011;40438;52.992;18.604;2024-02-21T12:53:55;20.40;;;9.38;;
54539;SDS011;40438;52.992;18.604;2024-02-21T12:56:23;16.50;;;7.63;;
54539;SDS011;40438;52.992;18.604;2024-02-21T12:58:48;18.35;;;8.20;;
54539;SDS011;40438;52.992;18.604;2024-02-21T13:01:14;23.08;;;8.63;;
54539;SDS011;40438;52.992;18.604;2024-02-21T13:03:40;17.63;;;7.43;;
54539;SDS011;40438;52.992;18.604;2024-02-21T13:06:06;20.70;;;8.43;;
54539;SDS011;40438;52.992;18.604;2024-02-21T13:08:32;19.55;;;9.13;;
54539;SDS011;40438;52.992;18.604;2024-02-21T13:10:59;20.92;;;9.02;;
54539;SDS011;40438;52.992;18.604;2024-02-21T13:13:26;20.98;;;8.30;;
54539;SDS011;40438;52.992;18.604;2024-02-21T13:15:51;21.67;;;8.10;;
54539;SDS011;40438;52.992;18.604;2024-02-21T13:18:17;18.13;;;7.68;;
54539;SDS011;40438;52.992;18.604;2024-02-21T13:20:43;23.75;;;8.68;;
54539;SDS011;40438;52.992;18.604;2024-02-21T13:23:09;27.88;;;9.07;;
54539;SDS011;40438;52.992;18.604;2024-02-21T13:25:34;19.05;;;7.55;;
54539;SDS011;40438;52.992;18.604;2024-02-21T13:28:00;19.92;;;8.15;;
54539;SDS011;40438;52.992;18.604;2024-02-21T13:30:27;25.05;;;7.88;;
54539;SDS011;40438;52.992;18.604;2024-02-21T13:32:53;24.15;;;8.98;;
54539;SDS011;40438;52.992;18.604;2024-02-21T13:35:19;19.42;;;8.23;;
54539;SDS011;40438;52.992;18.604;2024-02-21T13:37:45;18.05;;;8.30;;
54539;SDS011;40438;52.992;18.604;2024-02-21T13:40:11;19.88;;;8.10;;
54539;SDS011;40438;52.992;18.604;2024-02-21T13:42:36;21.83;;;8.40;;
54539;SDS011;40438;52.992;18.604;2024-02-21T13:45:03;18.13;;;8.07;;
54539;SDS011;40438;52.992;18.604;2024-02-21T13:47:30;21.13;;;9.18;;
54539;SDS011;40438;52.992;18.604;2024-02-21T13:49:56;25.20;;;8.68;;
54539;SDS011;40438;52.992;18.604;2024-02-21T13:52:22;21.13;;;9.85;;
54539;SDS011;40438;52.992;18.604;2024-02-21T13:54:48;14.15;;;7.38;;
54539;SDS011;40438;52.992;18.604;2024-02-21T13:57:14;21.80;;;8.32;;
54539;SDS011;40438;52.992;18.604;2024-02-21T13:59:40;21.67;;;8.27;;
54539;SDS011;40438;52.992;18.604;2024-02-21T14:02:06;25.08;;;7.93;;
54539;SDS011;40438;52.992;18.604;2024-02-21T14:04:33;21.13;;;7.80;;
54539;SDS011;40438;52.992;18.604;2024-02-21T14:06:59;32.05;;;10.20;;
54539;SDS011;40438;52.992;18.604;2024-02-21T14:09:25;19.20;;;7.78;;
54539;SDS011;40438;52.992;18.604;2024-02-21T14:11:50;24.08;;;8.48;;